MSC Sinfonia — H8XH — position and weather

sailwx.info

Track history (hours):
 
Tides and Currents Weather Stations Pressure Air Temp Water Temp Dewpoint Dewpoint Depression Visibility Wind Speed Wind Dir Waves Ship Positions

MSC Sinfonia

Last reported at 2017-Jun-21 04:32 UTC. Time now 2017-Jun-22 16:38 UTC.
Position N 36°39' E 023°43'.

Length 251 m; draft 6.8 m.

Type: Passenger vessel. MMSI: 356715971.

Date/timePositionNaut miles runAvg speedWind from/ knotsBaromVisibWave heightAir tempDewpointWater temp
2017-Jun-21 04:32N 36°39' E 023°43'019.1
2017-Jun-21 04:30N 36°40' E 023°43'6219.0
2017-Jun-21 01:14N 37°14' E 024°48'419.2
2017-Jun-21 01:00N 37°17' E 024°52'1019.2
2017-Jun-21 00:30N 37°23' E 025°02'918.6
2017-Jun-21 00:00N 37°27' E 025°12'611.3
2017-Jun-20 23:30N 37°28' E 025°19'0 0.0
2017-Jun-20 23:00N 37°28' E 025°19'0 0.0
2017-Jun-20 22:30N 37°28' E 025°19'0 0.0
2017-Jun-20 22:00N 37°28' E 025°19'0 0.0
2017-Jun-20 21:27N 37°28' E 025°19'0 0.0
2017-Jun-20 21:00N 37°28' E 025°19'0 0.0
2017-Jun-20 20:30N 37°28' E 025°19'0 0.0
2017-Jun-20 20:00N 37°28' E 025°19'0 0.0
2017-Jun-20 19:30N 37°28' E 025°19'0 0.0
2017-Jun-20 19:00N 37°28' E 025°19'0 0.0
2017-Jun-20 18:30N 37°28' E 025°19'0 0.0
2017-Jun-20 18:00N 37°28' E 025°19'0 0.0
2017-Jun-20 17:30N 37°28' E 025°19'0 0.0
2017-Jun-20 17:00N 37°28' E 025°19'1 2.2
2017-Jun-20 16:31N 37°28' E 025°18'714.5
2017-Jun-20 16:00N 37°23' E 025°11'918.1
2017-Jun-20 15:30N 37°15' E 025°15'917.3
2017-Jun-20 15:01N 37°06' E 025°18'  
2017-Jun-17 22:00N 44°12' E 013°55'510.2
2017-Jun-17 21:30N 44°16' E 013°52'713.6
2017-Jun-17 20:59N 44°22' E 013°46'1019.1
2017-Jun-17 20:29N 44°31' E 013°39'919.1
2017-Jun-17 20:00N 44°38' E 013°33'918.8
2017-Jun-17 19:30N 44°46' E 013°25'918.8
2017-Jun-17 19:00N 44°54' E 013°18'918.5
2017-Jun-17 18:30N 45°00' E 013°08'918.7
2017-Jun-17 18:00N 45°05' E 012°58'918.3
2017-Jun-17 17:30N 45°11' E 012°48'918.2
2017-Jun-17 17:00N 45°18' E 012°38'917.8
2017-Jun-17 16:30N 45°24' E 012°29'5 9.7
2017-Jun-17 16:00N 45°26' E 012°23'3 5.1
2017-Jun-17 15:30N 45°26' E 012°19'1 1.0
2017-Jun-17 14:59N 45°26' E 012°18'0 0.0
2017-Jun-17 14:23N 45°26' E 012°18'0 0.0
2017-Jun-17 12:17N 45°26' E 012°18'0 0.0
2017-Jun-17 11:59N 45°26' E 012°18'0 0.0
2017-Jun-17 11:29N 45°26' E 012°18'0 0.0
2017-Jun-17 10:59N 45°26' E 012°18'0 0.0
2017-Jun-17 10:29N 45°26' E 012°18'0 0.0
2017-Jun-17 09:59N 45°26' E 012°18'0 0.0
2017-Jun-17 09:29N 45°26' E 012°18'0 0.0
2017-Jun-17 08:59N 45°26' E 012°18'0 0.0
2017-Jun-17 08:26N 45°26' E 012°18'0 0.0
2017-Jun-17 07:53N 45°26' E 012°18'0 0.0
2017-Jun-17 07:29N 45°26' E 012°18'0 0.0
2017-Jun-17 07:00N 45°26' E 012°18'0 0.0
2017-Jun-17 06:30N 45°26' E 012°18'0 0.0
2017-Jun-17 06:00N 45°26' E 012°18'0 0.3
2017-Jun-17 05:30N 45°26' E 012°18'3 5.5
2017-Jun-17 05:00N 45°25' E 012°22'4 8.2
2017-Jun-17 04:31N 45°24' E 012°28'5 9.7
2017-Jun-17 04:00N 45°22' E 012°34'5 9.9
2017-Jun-17 03:30N 45°19' E 012°40'510.1
2017-Jun-17 03:00N 45°16' E 012°46'5 9.8
2017-Jun-17 02:31N 45°12' E 012°49'510.1
2017-Jun-17 02:00N 45°07' E 012°52'510.1
2017-Jun-17 01:31N 45°03' E 012°55'510.0
2017-Jun-17 01:01N 44°58' E 012°58'510.1
2017-Jun-17 00:30N 44°53' E 012°59'510.5
2017-Jun-17 00:00N 44°48' E 013°01'510.4
2017-Jun-16 23:30N 44°43' E 013°03'510.4
2017-Jun-16 23:00N 44°38' E 013°05'611.4
2017-Jun-16 22:30N 44°33' E 013°08'611.5
2017-Jun-16 22:00N 44°27' E 013°11'611.7
2017-Jun-16 21:30N 44°22' E 013°13'612.0
2017-Jun-16 21:00N 44°17' E 013°18'41 7.5
2017-Jun-16 15:33N 43°37' E 013°30'0 0.0
2017-Jun-16 15:06N 43°37' E 013°30'0 0.0
2017-Jun-16 14:48N 43°37' E 013°30'0 0.0
2017-Jun-16 13:48N 43°37' E 013°30'0 0.0
2017-Jun-16 13:24N 43°37' E 013°30'0 0.0
2017-Jun-16 13:00N 43°37' E 013°30'0 0.0
2017-Jun-16 12:27N 43°37' E 013°30'0 0.0
2017-Jun-16 12:00N 43°37' E 013°30'0 0.0
2017-Jun-16 09:19N 43°37' E 013°30'0 0.0
2017-Jun-16 09:00N 43°37' E 013°30'0 0.0
2017-Jun-16 08:30N 43°37' E 013°30'0 0.0
2017-Jun-16 08:00N 43°37' E 013°30'0 0.0
2017-Jun-16 07:30N 43°37' E 013°30'1 2.5
2017-Jun-16 06:54N 43°38' E 013°29'42211.7
2017-Jun-14 18:45N 38°38' E 020°02'818.5
2017-Jun-14 18:21N 38°31' E 020°06'4718.4
2017-Jun-14 15:48N 37°49' E 020°33'20514.1
2017-Jun-14 01:12N 37°14' E 024°48'318.7
2017-Jun-14 01:01N 37°16' E 024°52'918.9
2017-Jun-14 00:31N 37°22' E 025°01'918.6
2017-Jun-14 00:00N 37°27' E 025°11'713.6
2017-Jun-13 23:30N 37°28' E 025°19'0 0.0
2017-Jun-13 23:00N 37°28' E 025°19'0 0.0
2017-Jun-13 22:27N 37°28' E 025°19'0 0.0
2017-Jun-13 22:00N 37°28' E 025°19'0 0.0
2017-Jun-13 21:30N 37°28' E 025°19'0 0.0
2017-Jun-13 21:01N 37°28' E 025°19'0 0.0
2017-Jun-13 20:30N 37°28' E 025°19'0 0.0
2017-Jun-13 20:00N 37°28' E 025°19'0 0.0
2017-Jun-13 19:30N 37°28' E 025°19'0 0.0
2017-Jun-13 19:00N 37°28' E 025°19'0 0.0
2017-Jun-13 18:30N 37°28' E 025°19'0 0.0
2017-Jun-13 18:00N 37°28' E 025°19'0 0.0
2017-Jun-13 17:27N 37°28' E 025°19'0 0.0
2017-Jun-13 17:01N 37°28' E 025°19'0 0.0
2017-Jun-13 16:30N 37°28' E 025°19'0 0.5
2017-Jun-13 16:00N 37°28' E 025°19'714.7
2017-Jun-13 15:30N 37°24' E 025°11'918.3
2017-Jun-13 15:00N 37°16' E 025°14'917.8
2017-Jun-13 14:30N 37°07' E 025°18'  
Track history (hours):
 
Tides and Currents Weather Stations Pressure Air Temp Water Temp Dewpoint Dewpoint Depression Visibility Wind Speed Wind Dir Waves Ship Positions

MSC Sinfonia

Last reported at 2017-Jun-21 04:32 UTC. Time now 2017-Jun-22 16:38 UTC.
Position N 36°39' E 023°43'.

Length 251 m; draft 6.8 m.

Type: Passenger vessel. MMSI: 356715971.

Date/timePositionNaut miles runAvg speedWind from/ knotsBaromVisibWave heightAir tempDewpointWater temp
2017-Jun-21 04:32N 36°39' E 023°43'019.1
2017-Jun-21 04:30N 36°40' E 023°43'6219.0
2017-Jun-21 01:14N 37°14' E 024°48'419.2
2017-Jun-21 01:00N 37°17' E 024°52'1019.2
2017-Jun-21 00:30N 37°23' E 025°02'918.6
2017-Jun-21 00:00N 37°27' E 025°12'611.3
2017-Jun-20 23:30N 37°28' E 025°19'0 0.0
2017-Jun-20 23:00N 37°28' E 025°19'0 0.0
2017-Jun-20 22:30N 37°28' E 025°19'0 0.0
2017-Jun-20 22:00N 37°28' E 025°19'0 0.0
2017-Jun-20 21:27N 37°28' E 025°19'0 0.0
2017-Jun-20 21:00N 37°28' E 025°19'0 0.0
2017-Jun-20 20:30N 37°28' E 025°19'0 0.0
2017-Jun-20 20:00N 37°28' E 025°19'0 0.0
2017-Jun-20 19:30N 37°28' E 025°19'0 0.0
2017-Jun-20 19:00N 37°28' E 025°19'0 0.0
2017-Jun-20 18:30N 37°28' E 025°19'0 0.0
2017-Jun-20 18:00N 37°28' E 025°19'0 0.0
2017-Jun-20 17:30N 37°28' E 025°19'0 0.0
2017-Jun-20 17:00N 37°28' E 025°19'1 2.2
2017-Jun-20 16:31N 37°28' E 025°18'714.5
2017-Jun-20 16:00N 37°23' E 025°11'918.1
2017-Jun-20 15:30N 37°15' E 025°15'917.3
2017-Jun-20 15:01N 37°06' E 025°18'  
2017-Jun-17 22:00N 44°12' E 013°55'510.2
2017-Jun-17 21:30N 44°16' E 013°52'713.6
2017-Jun-17 20:59N 44°22' E 013°46'1019.1
2017-Jun-17 20:29N 44°31' E 013°39'919.1
2017-Jun-17 20:00N 44°38' E 013°33'918.8
2017-Jun-17 19:30N 44°46' E 013°25'918.8
2017-Jun-17 19:00N 44°54' E 013°18'918.5
2017-Jun-17 18:30N 45°00' E 013°08'918.7
2017-Jun-17 18:00N 45°05' E 012°58'918.3
2017-Jun-17 17:30N 45°11' E 012°48'918.2
2017-Jun-17 17:00N 45°18' E 012°38'917.8
2017-Jun-17 16:30N 45°24' E 012°29'5 9.7
2017-Jun-17 16:00N 45°26' E 012°23'3 5.1
2017-Jun-17 15:30N 45°26' E 012°19'1 1.0
2017-Jun-17 14:59N 45°26' E 012°18'0 0.0
2017-Jun-17 14:23N 45°26' E 012°18'0 0.0
2017-Jun-17 12:17N 45°26' E 012°18'0 0.0
2017-Jun-17 11:59N 45°26' E 012°18'0 0.0
2017-Jun-17 11:29N 45°26' E 012°18'0 0.0
2017-Jun-17 10:59N 45°26' E 012°18'0 0.0
2017-Jun-17 10:29N 45°26' E 012°18'0 0.0
2017-Jun-17 09:59N 45°26' E 012°18'0 0.0
2017-Jun-17 09:29N 45°26' E 012°18'0 0.0
2017-Jun-17 08:59N 45°26' E 012°18'0 0.0
2017-Jun-17 08:26N 45°26' E 012°18'0 0.0
2017-Jun-17 07:53N 45°26' E 012°18'0 0.0
2017-Jun-17 07:29N 45°26' E 012°18'0 0.0
2017-Jun-17 07:00N 45°26' E 012°18'0 0.0
2017-Jun-17 06:30N 45°26' E 012°18'0 0.0
2017-Jun-17 06:00N 45°26' E 012°18'0 0.3
2017-Jun-17 05:30N 45°26' E 012°18'3 5.5
2017-Jun-17 05:00N 45°25' E 012°22'4 8.2
2017-Jun-17 04:31N 45°24' E 012°28'5 9.7
2017-Jun-17 04:00N 45°22' E 012°34'5 9.9
2017-Jun-17 03:30N 45°19' E 012°40'510.1
2017-Jun-17 03:00N 45°16' E 012°46'5 9.8
2017-Jun-17 02:31N 45°12' E 012°49'510.1
2017-Jun-17 02:00N 45°07' E 012°52'510.1
2017-Jun-17 01:31N 45°03' E 012°55'510.0
2017-Jun-17 01:01N 44°58' E 012°58'510.1
2017-Jun-17 00:30N 44°53' E 012°59'510.5
2017-Jun-17 00:00N 44°48' E 013°01'510.4
2017-Jun-16 23:30N 44°43' E 013°03'510.4
2017-Jun-16 23:00N 44°38' E 013°05'611.4
2017-Jun-16 22:30N 44°33' E 013°08'611.5
2017-Jun-16 22:00N 44°27' E 013°11'611.7
2017-Jun-16 21:30N 44°22' E 013°13'612.0
2017-Jun-16 21:00N 44°17' E 013°18'41 7.5
2017-Jun-16 15:33N 43°37' E 013°30'0 0.0
2017-Jun-16 15:06N 43°37' E 013°30'0 0.0
2017-Jun-16 14:48N 43°37' E 013°30'0 0.0
2017-Jun-16 13:48N 43°37' E 013°30'0 0.0
2017-Jun-16 13:24N 43°37' E 013°30'0 0.0
2017-Jun-16 13:00N 43°37' E 013°30'0 0.0
2017-Jun-16 12:27N 43°37' E 013°30'0 0.0
2017-Jun-16 12:00N 43°37' E 013°30'0 0.0
2017-Jun-16 09:19N 43°37' E 013°30'0 0.0
2017-Jun-16 09:00N 43°37' E 013°30'0 0.0
2017-Jun-16 08:30N 43°37' E 013°30'0 0.0
2017-Jun-16 08:00N 43°37' E 013°30'0 0.0
2017-Jun-16 07:30N 43°37' E 013°30'1 2.5
2017-Jun-16 06:54N 43°38' E 013°29'42211.7
2017-Jun-14 18:45N 38°38' E 020°02'818.5
2017-Jun-14 18:21N 38°31' E 020°06'4718.4
2017-Jun-14 15:48N 37°49' E 020°33'20514.1
2017-Jun-14 01:12N 37°14' E 024°48'318.7
2017-Jun-14 01:01N 37°16' E 024°52'918.9
2017-Jun-14 00:31N 37°22' E 025°01'918.6
2017-Jun-14 00:00N 37°27' E 025°11'713.6
2017-Jun-13 23:30N 37°28' E 025°19'0 0.0
2017-Jun-13 23:00N 37°28' E 025°19'0 0.0
2017-Jun-13 22:27N 37°28' E 025°19'0 0.0
2017-Jun-13 22:00N 37°28' E 025°19'0 0.0
2017-Jun-13 21:30N 37°28' E 025°19'0 0.0
2017-Jun-13 21:01N 37°28' E 025°19'0 0.0
2017-Jun-13 20:30N 37°28' E 025°19'0 0.0
2017-Jun-13 20:00N 37°28' E 025°19'0 0.0
2017-Jun-13 19:30N 37°28' E 025°19'0 0.0
2017-Jun-13 19:00N 37°28' E 025°19'0 0.0
2017-Jun-13 18:30N 37°28' E 025°19'0 0.0
2017-Jun-13 18:00N 37°28' E 025°19'0 0.0
2017-Jun-13 17:27N 37°28' E 025°19'0 0.0
2017-Jun-13 17:01N 37°28' E 025°19'0 0.0
2017-Jun-13 16:30N 37°28' E 025°19'0 0.5
2017-Jun-13 16:00N 37°28' E 025°19'714.7
2017-Jun-13 15:30N 37°24' E 025°11'918.3
2017-Jun-13 15:00N 37°16' E 025°14'917.8
2017-Jun-13 14:30N 37°07' E 025°18'  

Dump ship's entire track history